sensor_id;sensor_type;location;lat;lon;timestamp;pressure;altitude;pressure_sealevel;temperature;humidity
4528;BME280;62320;51.520;6.818;2023-06-10T00:00:23;100952.25;;;22.80;52.26
4528;BME280;62320;51.520;6.818;2023-06-10T00:10:24;100947.31;;;22.72;52.57
4528;BME280;62320;51.520;6.818;2023-06-10T00:20:26;100948.88;;;22.57;53.02
4528;BME280;62320;51.520;6.818;2023-06-10T00:30:27;100952.75;;;22.49;52.82
4528;BME280;62320;51.520;6.818;2023-06-10T00:40:29;100956.13;;;22.34;52.89
4528;BME280;62320;51.520;6.818;2023-06-10T00:50:31;100963.56;;;22.06;56.31
4528;BME280;62320;51.520;6.818;2023-06-10T01:00:32;100960.06;;;22.05;54.81
4528;BME280;62320;51.520;6.818;2023-06-10T01:10:42;100962.03;;;22.00;54.67
4528;BME280;62320;51.520;6.818;2023-06-10T01:20:44;100970.03;;;21.77;56.05
4528;BME280;62320;51.520;6.818;2023-06-10T01:40:58;100969.44;;;21.50;56.62
4528;BME280;62320;51.520;6.818;2023-06-10T01:51:01;100963.75;;;21.39;59.96
4528;BME280;62320;51.520;6.818;2023-06-10T02:01:03;100965.81;;;21.53;57.02
4528;BME280;62320;51.520;6.818;2023-06-10T02:11:04;100975.44;;;21.32;59.70
4528;BME280;62320;51.520;6.818;2023-06-10T02:21:06;100971.97;;;21.31;59.57
4528;BME280;62320;51.520;6.818;2023-06-10T02:31:08;100973.38;;;21.18;59.51
4528;BME280;62320;51.520;6.818;2023-06-10T02:41:09;100969.78;;;20.98;60.39
4528;BME280;62320;51.520;6.818;2023-06-10T02:51:11;100967.28;;;20.95;59.51
4528;BME280;62320;51.520;6.818;2023-06-10T03:01:12;100971.84;;;20.68;61.87
4528;BME280;62320;51.520;6.818;2023-06-10T03:11:14;100968.78;;;20.79;61.23
4528;BME280;62320;51.520;6.818;2023-06-10T03:21:16;100975.25;;;20.47;60.70
4528;BME280;62320;51.520;6.818;2023-06-10T03:31:17;100989.19;;;20.49;61.31
4528;BME280;62320;51.520;6.818;2023-06-10T03:41:19;100984.53;;;20.34;60.99
4528;BME280;62320;51.520;6.818;2023-06-10T03:51:20;101001.94;;;20.36;60.25
4528;BME280;62320;51.520;6.818;2023-06-10T04:01:23;101002.38;;;20.24;60.65
4528;BME280;62320;51.520;6.818;2023-06-10T04:11:25;101001.69;;;20.19;61.21
4528;BME280;62320;51.520;6.818;2023-06-10T04:21:27;101008.63;;;20.20;60.19
4528;BME280;62320;51.520;6.818;2023-06-10T04:31:28;101023.03;;;20.35;59.36
4528;BME280;62320;51.520;6.818;2023-06-10T04:41:30;101026.13;;;20.46;60.47
4528;BME280;62320;51.520;6.818;2023-06-10T04:51:32;101024.34;;;20.70;59.93
4528;BME280;62320;51.520;6.818;2023-06-10T05:01:33;101020.53;;;21.00;58.42
4528;BME280;62320;51.520;6.818;2023-06-10T05:11:35;101016.88;;;21.27;57.48
4528;BME280;62320;51.520;6.818;2023-06-10T05:21:37;101029.13;;;21.28;57.59
4528;BME280;62320;51.520;6.818;2023-06-10T05:31:38;101027.44;;;21.47;56.61
4528;BME280;62320;51.520;6.818;2023-06-10T05:41:40;101040.91;;;21.81;55.58
4528;BME280;62320;51.520;6.818;2023-06-10T05:51:41;101039.94;;;22.26;54.70
4528;BME280;62320;51.520;6.818;2023-06-10T06:01:43;101035.50;;;22.46;54.46
4528;BME280;62320;51.520;6.818;2023-06-10T06:11:45;101037.31;;;22.83;53.46
4528;BME280;62320;51.520;6.818;2023-06-10T06:21:46;101035.69;;;23.36;52.39
4528;BME280;62320;51.520;6.818;2023-06-10T06:31:48;101040.22;;;23.52;52.81
4528;BME280;62320;51.520;6.818;2023-06-10T06:41:49;101048.34;;;24.17;50.67
4528;BME280;62320;51.520;6.818;2023-06-10T06:51:51;101068.91;;;24.45;49.40
4528;BME280;62320;51.520;6.818;2023-06-10T07:01:52;101067.69;;;24.85;47.79
4528;BME280;62320;51.520;6.818;2023-06-10T07:11:55;101060.88;;;24.96;49.88
4528;BME280;62320;51.520;6.818;2023-06-10T07:21:56;101060.53;;;25.49;46.61
4528;BME280;62320;51.520;6.818;2023-06-10T07:31:58;101066.38;;;25.85;45.59
4528;BME280;62320;51.520;6.818;2023-06-10T07:42:00;101063.97;;;26.40;47.76
4528;BME280;62320;51.520;6.818;2023-06-10T07:52:01;101061.13;;;26.43;48.54
4528;BME280;62320;51.520;6.818;2023-06-10T08:02:04;101062.56;;;27.05;46.58
4528;BME280;62320;51.520;6.818;2023-06-10T08:12:06;101067.34;;;27.68;42.52
4528;BME280;62320;51.520;6.818;2023-06-10T08:22:08;101058.47;;;27.54;44.72
4528;BME280;62320;51.520;6.818;2023-06-10T08:32:10;101075.69;;;28.27;41.75
4528;BME280;62320;51.520;6.818;2023-06-10T08:42:34;101080.16;;;28.14;41.58
4528;BME280;62320;51.520;6.818;2023-06-10T08:52:43;101082.31;;;28.72;44.27
4528;BME280;62320;51.520;6.818;2023-06-10T09:02:46;101069.75;;;28.87;41.06
4528;BME280;62320;51.520;6.818;2023-06-10T09:12:48;101074.81;;;28.90;43.98
4528;BME280;62320;51.520;6.818;2023-06-10T09:22:50;101066.38;;;29.09;43.36
4528;BME280;62320;51.520;6.818;2023-06-10T09:32:53;101060.13;;;28.97;41.88
4528;BME280;62320;51.520;6.818;2023-06-10T09:43:00;101065.94;;;29.15;41.39
4528;BME280;62320;51.520;6.818;2023-06-10T09:53:02;101052.47;;;29.41;41.92
4528;BME280;62320;51.520;6.818;2023-06-10T10:03:04;101055.13;;;29.41;41.89
4528;BME280;62320;51.520;6.818;2023-06-10T10:13:08;101049.94;;;29.27;41.51
4528;BME280;62320;51.520;6.818;2023-06-10T10:23:11;101038.78;;;29.22;41.58
4528;BME280;62320;51.520;6.818;2023-06-10T10:43:20;101033.06;;;29.03;40.65
4528;BME280;62320;51.520;6.818;2023-06-10T10:53:22;101018.31;;;28.86;40.27
4528;BME280;62320;51.520;6.818;2023-06-10T11:03:28;101023.09;;;28.94;38.59
4528;BME280;62320;51.520;6.818;2023-06-10T11:13:30;101010.09;;;28.89;40.58
4528;BME280;62320;51.520;6.818;2023-06-10T11:33:38;100999.88;;;28.83;40.11
4528;BME280;62320;51.520;6.818;2023-06-10T11:43:46;100999.34;;;28.78;39.60
4528;BME280;62320;51.520;6.818;2023-06-10T11:53:48;100992.56;;;28.74;39.12
4528;BME280;62320;51.520;6.818;2023-06-10T12:04:04;100988.69;;;28.91;39.31
4528;BME280;62320;51.520;6.818;2023-06-10T12:14:06;100983.91;;;28.83;39.47
4528;BME280;62320;51.520;6.818;2023-06-10T12:24:09;100961.91;;;29.05;36.74
4528;BME280;62320;51.520;6.818;2023-06-10T12:34:11;100957.19;;;29.09;37.06
4528;BME280;62320;51.520;6.818;2023-06-10T12:44:12;100959.06;;;28.95;38.32
4528;BME280;62320;51.520;6.818;2023-06-10T12:54:14;100959.06;;;28.95;36.83
4528;BME280;62320;51.520;6.818;2023-06-10T13:04:16;100951.50;;;29.13;37.06
4528;BME280;62320;51.520;6.818;2023-06-10T13:14:17;100952.34;;;29.26;36.38
4528;BME280;62320;51.520;6.818;2023-06-10T13:24:19;100942.56;;;29.14;38.12
4528;BME280;62320;51.520;6.818;2023-06-10T13:34:21;100938.63;;;29.20;36.59
4528;BME280;62320;51.520;6.818;2023-06-10T13:44:23;100924.63;;;29.29;36.83
4528;BME280;62320;51.520;6.818;2023-06-10T13:54:24;100921.25;;;29.38;35.79
4528;BME280;62320;51.520;6.818;2023-06-10T14:04:26;100919.66;;;29.35;35.19
4528;BME280;62320;51.520;6.818;2023-06-10T14:14:28;100906.25;;;29.37;35.47
4528;BME280;62320;51.520;6.818;2023-06-10T14:24:29;100904.00;;;29.20;37.06
4528;BME280;62320;51.520;6.818;2023-06-10T14:34:31;100908.28;;;29.33;35.56
4528;BME280;62320;51.520;6.818;2023-06-10T14:44:35;100907.94;;;29.38;36.07
4528;BME280;62320;51.520;6.818;2023-06-10T14:54:36;100887.56;;;29.26;37.61
4528;BME280;62320;51.520;6.818;2023-06-10T15:04:38;100892.81;;;29.38;35.78
4528;BME280;62320;51.520;6.818;2023-06-10T15:14:39;100882.59;;;29.21;37.12
4528;BME280;62320;51.520;6.818;2023-06-10T15:24:41;100876.97;;;29.48;35.85
4528;BME280;62320;51.520;6.818;2023-06-10T15:34:42;100870.75;;;29.36;37.41
4528;BME280;62320;51.520;6.818;2023-06-10T15:44:44;100873.06;;;29.41;37.68
4528;BME280;62320;51.520;6.818;2023-06-10T15:54:45;100876.34;;;29.44;37.09
4528;BME280;62320;51.520;6.818;2023-06-10T16:04:47;100873.06;;;29.41;37.79
4528;BME280;62320;51.520;6.818;2023-06-10T16:14:48;100854.56;;;29.39;37.64
4528;BME280;62320;51.520;6.818;2023-06-10T16:24:50;100865.44;;;29.36;37.75
4528;BME280;62320;51.520;6.818;2023-06-10T16:34:51;100861.66;;;29.28;38.08
4528;BME280;62320;51.520;6.818;2023-06-10T16:44:53;100869.16;;;29.23;37.77
4528;BME280;62320;51.520;6.818;2023-06-10T16:54:54;100872.88;;;29.20;38.49
4528;BME280;62320;51.520;6.818;2023-06-10T17:04:56;100873.31;;;29.14;38.53
4528;BME280;62320;51.520;6.818;2023-06-10T17:14:58;100868.69;;;29.05;38.22
4528;BME280;62320;51.520;6.818;2023-06-10T17:24:59;100871.06;;;28.97;38.56
4528;BME280;62320;51.520;6.818;2023-06-10T17:35:01;100871.97;;;28.85;38.43
4528;BME280;62320;51.520;6.818;2023-06-10T17:45:03;100889.66;;;28.86;39.35
4528;BME280;62320;51.520;6.818;2023-06-10T17:55:04;100895.13;;;28.72;39.84
4528;BME280;62320;51.520;6.818;2023-06-10T18:05:06;100907.50;;;28.73;40.04
4528;BME280;62320;51.520;6.818;2023-06-10T18:15:08;100909.53;;;28.57;40.05
4528;BME280;62320;51.520;6.818;2023-06-10T18:25:13;100905.22;;;28.43;40.11
4528;BME280;62320;51.520;6.818;2023-06-10T18:35:15;100919.50;;;28.30;40.23
4528;BME280;62320;51.520;6.818;2023-06-10T18:45:16;100927.59;;;28.15;41.02
4528;BME280;62320;51.520;6.818;2023-06-10T18:55:18;100923.78;;;28.07;41.77
4528;BME280;62320;51.520;6.818;2023-06-10T19:05:20;100927.94;;;27.98;41.38
4528;BME280;62320;51.520;6.818;2023-06-10T19:15:23;100941.50;;;27.81;42.75
4528;BME280;62320;51.520;6.818;2023-06-10T19:25:25;100948.19;;;27.62;43.23
4528;BME280;62320;51.520;6.818;2023-06-10T19:35:26;100965.13;;;27.46;43.33
4528;BME280;62320;51.520;6.818;2023-06-10T19:45:28;100971.41;;;27.45;43.09
4528;BME280;62320;51.520;6.818;2023-06-10T19:55:30;100977.38;;;27.22;44.29
4528;BME280;62320;51.520;6.818;2023-06-10T20:05:31;100983.00;;;27.04;44.60
4528;BME280;62320;51.520;6.818;2023-06-10T20:15:34;100990.47;;;26.84;44.38
4528;BME280;62320;51.520;6.818;2023-06-10T20:25:35;100996.25;;;26.77;44.56
4528;BME280;62320;51.520;6.818;2023-06-10T20:35:37;101005.22;;;26.60;44.65
4528;BME280;62320;51.520;6.818;2023-06-10T20:45:38;101017.75;;;26.44;44.21
4528;BME280;62320;51.520;6.818;2023-06-10T20:55:40;101024.84;;;26.30;45.34
4528;BME280;62320;51.520;6.818;2023-06-10T21:05:41;101026.91;;;26.10;45.93
4528;BME280;62320;51.520;6.818;2023-06-10T21:15:43;101036.34;;;26.00;45.50
4528;BME280;62320;51.520;6.818;2023-06-10T21:25:45;101038.00;;;25.87;45.91
4528;BME280;62320;51.520;6.818;2023-06-10T21:35:46;101038.63;;;25.77;46.71
4528;BME280;62320;51.520;6.818;2023-06-10T21:45:48;101048.88;;;25.67;46.02
4528;BME280;62320;51.520;6.818;2023-06-10T21:55:49;101034.06;;;25.49;46.71
4528;BME280;62320;51.520;6.818;2023-06-10T22:05:51;101030.28;;;25.37;47.03
4528;BME280;62320;51.520;6.818;2023-06-10T22:15:52;101036.19;;;25.27;47.02
4528;BME280;62320;51.520;6.818;2023-06-10T22:25:54;101040.72;;;25.09;48.21
4528;BME280;62320;51.520;6.818;2023-06-10T22:35:55;101040.13;;;25.04;48.02
4528;BME280;62320;51.520;6.818;2023-06-10T22:45:57;101034.41;;;24.81;47.54
4528;BME280;62320;51.520;6.818;2023-06-10T22:55:58;101039.63;;;24.65;48.65
4528;BME280;62320;51.520;6.818;2023-06-10T23:06:00;101033.88;;;24.41;50.13
4528;BME280;62320;51.520;6.818;2023-06-10T23:16:01;101042.53;;;24.28;50.28
4528;BME280;62320;51.520;6.818;2023-06-10T23:26:03;101049.75;;;24.07;52.75
4528;BME280;62320;51.520;6.818;2023-06-10T23:36:05;101060.00;;;23.96;52.74
4528;BME280;62320;51.520;6.818;2023-06-10T23:46:06;101047.78;;;23.93;51.13
4528;BME280;62320;51.520;6.818;2023-06-10T23:56:08;101048.09;;;23.70;53.56
